createdAt,value
2022-07-26T00:00:06.086Z,25.65
2022-07-26T00:04:59.629Z,25.64
2022-07-26T00:09:54.407Z,25.45
2022-07-26T00:14:47.818Z,25.55
2022-07-26T00:19:41.201Z,25.77
2022-07-26T00:24:35.608Z,25.84
2022-07-26T00:29:30.479Z,25.88
2022-07-26T00:34:23.876Z,25.81
2022-07-26T00:39:17.382Z,25.68
2022-07-26T00:44:10.973Z,25.68
2022-07-26T00:49:06.167Z,25.75
2022-07-26T00:53:59.834Z,25.63
2022-07-26T00:58:53.525Z,25.65
2022-07-26T01:04:32.498Z,25.61
2022-07-26T01:09:30.073Z,25.64
2022-07-26T01:14:27.372Z,25.33
2022-07-26T01:19:22.861Z,25.38
2022-07-26T01:24:28.271Z,25.36
2022-07-26T01:29:21.712Z,25.40
2022-07-26T01:34:15.054Z,25.32
2022-07-26T01:39:39.516Z,25.31
2022-07-26T01:44:32.971Z,25.26
2022-07-26T01:49:26.374Z,25.18
2022-07-26T01:54:36.840Z,25.14
2022-07-26T01:59:30.253Z,25.12
2022-07-26T02:04:40.983Z,25.10
2022-07-26T02:09:47.168Z,24.86
2022-07-26T02:14:41.759Z,24.89
2022-07-26T02:19:35.352Z,24.77
2022-07-26T02:24:39.458Z,24.81
2022-07-26T02:29:34.230Z,24.64
2022-07-26T02:34:32.236Z,24.46
2022-07-26T02:39:29.478Z,24.64
2022-07-26T02:44:23.565Z,24.72
2022-07-26T02:49:23.067Z,24.72
2022-07-26T02:54:16.785Z,24.73
2022-07-26T02:59:10.172Z,24.62
2022-07-26T03:04:03.870Z,24.56
2022-07-26T03:08:58.695Z,24.49
2022-07-26T03:13:52.078Z,24.46
2022-07-26T03:18:45.950Z,24.46
2022-07-26T03:23:39.379Z,24.52
2022-07-26T03:28:34.854Z,24.59
2022-07-26T03:33:28.294Z,24.43
2022-07-26T03:38:21.748Z,24.29
2022-07-26T03:43:15.317Z,24.26
2022-07-26T03:48:10.242Z,24.28
2022-07-26T03:53:08.350Z,24.18
2022-07-26T03:58:01.724Z,23.85
2022-07-26T04:02:55.210Z,23.76
2022-07-26T04:07:53.350Z,23.66
2022-07-26T04:12:46.963Z,23.54
2022-07-26T04:17:41.631Z,23.30
2022-07-26T04:22:35.872Z,23.03
2022-07-26T04:27:31.041Z,23.08
2022-07-26T04:32:24.576Z,22.89
2022-07-26T04:37:17.995Z,22.70
2022-07-26T04:42:12.295Z,23.24
2022-07-26T04:47:07.323Z,23.26
2022-07-26T04:52:00.724Z,23.22
2022-07-26T04:56:54.131Z,23.03
2022-07-26T05:01:47.569Z,23.11
2022-07-26T05:06:43.358Z,22.99
2022-07-26T05:11:36.752Z,22.96
2022-07-26T05:16:30.185Z,22.85
2022-07-26T05:21:24.876Z,22.83
2022-07-26T05:26:19.651Z,22.78
2022-07-26T05:31:13.078Z,22.80
2022-07-26T05:36:07.422Z,22.86
2022-07-26T05:41:00.825Z,22.83
2022-07-26T05:45:57.363Z,22.79
2022-07-26T05:50:50.962Z,22.29
2022-07-26T05:55:44.301Z,22.57
2022-07-26T06:00:37.694Z,22.73
2022-07-26T06:05:32.410Z,22.90
2022-07-26T06:10:25.983Z,22.83
2022-07-26T06:15:19.552Z,22.87
2022-07-26T06:20:13.457Z,23.00
2022-07-26T06:25:09.652Z,23.09
2022-07-26T06:30:03.225Z,23.03
2022-07-26T06:34:56.528Z,23.11
2022-07-26T06:39:49.916Z,23.09
2022-07-26T06:44:44.705Z,23.03
2022-07-26T06:49:38.167Z,23.00
2022-07-26T06:54:31.515Z,23.04
2022-07-26T06:59:24.973Z,23.02
2022-07-26T07:04:19.776Z,23.12
2022-07-26T07:09:13.525Z,23.13
2022-07-26T07:14:09.512Z,22.87
2022-07-26T07:19:03.245Z,22.79
2022-07-26T07:23:57.947Z,22.94
2022-07-26T07:28:51.442Z,23.46
2022-07-26T07:33:53.644Z,23.62
2022-07-26T07:38:47.409Z,23.92
2022-07-26T07:43:42.097Z,23.92
2022-07-26T07:48:35.525Z,24.02
2022-07-26T07:53:30.501Z,24.12
2022-07-26T07:58:24.420Z,23.91
2022-07-26T08:03:22.867Z,23.79
2022-07-26T08:08:16.742Z,23.94
2022-07-26T08:13:10.200Z,24.21
2022-07-26T08:18:04.861Z,24.26
2022-07-26T08:23:05.593Z,24.43
2022-07-26T08:28:06.060Z,24.60
2022-07-26T08:33:00.293Z,24.98
2022-07-26T08:37:53.621Z,25.00
2022-07-26T08:42:53.737Z,24.61
2022-07-26T08:48:15.111Z,24.60
2022-07-26T08:53:04.186Z,24.61
2022-07-26T08:57:59.567Z,24.62
2022-07-26T09:02:54.285Z,24.82
2022-07-26T09:07:48.166Z,25.95
2022-07-26T09:12:42.811Z,26.62
2022-07-26T09:17:44.847Z,26.26
2022-07-26T09:22:40.343Z,25.94
2022-07-26T09:27:37.731Z,25.58
2022-07-26T09:32:31.419Z,25.72
2022-07-26T09:37:40.504Z,25.66
2022-07-26T09:42:34.090Z,24.81
2022-07-26T09:47:38.057Z,24.27
2022-07-26T09:52:31.556Z,24.01
2022-07-26T09:57:26.283Z,23.69
2022-07-26T10:02:19.633Z,23.47
2022-07-26T10:07:13.115Z,23.44
2022-07-26T10:12:10.308Z,23.47
2022-07-26T10:17:46.091Z,23.15
2022-07-26T10:22:51.182Z,23.48
2022-07-26T10:27:47.181Z,23.19
2022-07-26T10:32:43.921Z,23.18
2022-07-26T10:37:37.806Z,23.25
2022-07-26T10:42:46.039Z,23.44
2022-07-26T10:47:59.797Z,23.52
2022-07-26T10:53:01.833Z,23.69
2022-07-26T10:57:55.341Z,23.95
2022-07-26T11:02:58.146Z,23.77
2022-07-26T11:08:08.261Z,23.53
2022-07-26T11:13:19.495Z,23.43
2022-07-26T11:18:21.404Z,23.35
2022-07-26T11:23:29.772Z,24.30
2022-07-26T11:28:23.285Z,25.11
2022-07-26T11:33:17.161Z,24.91
2022-07-26T11:38:12.423Z,24.31
2022-07-26T11:43:07.609Z,24.72
2022-07-26T11:48:01.347Z,25.72
2022-07-26T11:52:58.344Z,25.49
2022-07-26T11:57:52.341Z,25.15
2022-07-26T12:02:50.297Z,25.15
2022-07-26T12:07:58.463Z,26.03
2022-07-26T12:13:07.973Z,26.41
2022-07-26T12:18:04.181Z,25.88
2022-07-26T12:23:06.129Z,25.48
2022-07-26T12:28:00.731Z,25.40
2022-07-26T12:32:55.475Z,25.74
2022-07-26T12:37:54.507Z,25.47
2022-07-26T12:43:01.246Z,25.08
2022-07-26T12:47:59.519Z,24.96
2022-07-26T12:53:05.163Z,25.17
2022-07-26T12:57:59.621Z,25.40
2022-07-26T13:02:54.860Z,25.30
2022-07-26T13:07:49.158Z,25.20
2022-07-26T13:12:44.089Z,25.37
2022-07-26T13:17:38.052Z,25.58
2022-07-26T13:22:31.470Z,25.51
2022-07-26T13:27:26.135Z,25.74
2022-07-26T13:32:32.628Z,25.58
2022-07-26T13:37:26.453Z,25.80
2022-07-26T13:42:23.031Z,25.89
2022-07-26T13:47:17.515Z,25.94
2022-07-26T13:52:16.820Z,26.05
2022-07-26T13:57:10.833Z,26.20
2022-07-26T14:02:06.556Z,26.15
2022-07-26T14:07:03.533Z,26.37
2022-07-26T14:11:59.090Z,26.23
2022-07-26T14:16:53.560Z,26.18
2022-07-26T14:21:59.905Z,26.04
2022-07-26T14:26:58.844Z,26.04
2022-07-26T14:31:58.404Z,25.69
2022-07-26T14:37:08.332Z,25.74
2022-07-26T14:42:17.404Z,25.89
2022-07-26T14:47:12.206Z,25.76
2022-07-26T14:52:06.213Z,25.60
2022-07-26T14:57:00.108Z,25.71
2022-07-26T15:01:54.504Z,25.64
2022-07-26T15:06:49.467Z,25.50
2022-07-26T15:11:43.078Z,25.42
2022-07-26T15:16:36.851Z,25.39
2022-07-26T15:21:30.291Z,25.58
2022-07-26T15:26:25.252Z,25.67
2022-07-26T15:31:18.976Z,25.65
2022-07-26T15:36:12.479Z,25.69
2022-07-26T15:41:06.102Z,25.65
2022-07-26T15:46:01.054Z,25.60
2022-07-26T15:50:55.962Z,25.67
2022-07-26T15:55:49.837Z,25.61
2022-07-26T16:00:44.143Z,25.64
2022-07-26T16:05:39.563Z,25.75
2022-07-26T16:10:33.100Z,25.93
2022-07-26T16:15:26.954Z,26.01
2022-07-26T16:20:20.571Z,26.05
2022-07-26T16:25:16.299Z,25.93
2022-07-26T16:30:11.701Z,25.85
2022-07-26T16:35:05.840Z,25.85
2022-07-26T16:39:59.228Z,25.69
2022-07-26T16:44:54.165Z,25.52
2022-07-26T16:49:48.564Z,25.43
2022-07-26T16:54:43.277Z,25.43
2022-07-26T16:59:37.182Z,25.46
2022-07-26T17:04:32.668Z,25.45
2022-07-26T17:09:26.095Z,25.52
2022-07-26T17:14:20.580Z,25.41
2022-07-26T17:19:14.748Z,25.37
2022-07-26T17:24:10.310Z,25.33
2022-07-26T17:29:07.898Z,25.28
2022-07-26T17:34:01.808Z,25.23
2022-07-26T17:38:57.076Z,25.05
2022-07-26T17:43:53.886Z,24.87
2022-07-26T17:48:47.594Z,24.78
2022-07-26T17:53:42.769Z,24.80
2022-07-26T17:58:38.318Z,24.75
2022-07-26T18:03:33.651Z,24.72
2022-07-26T18:08:28.187Z,24.64
2022-07-26T18:13:22.172Z,24.62
2022-07-26T18:18:15.682Z,24.54
2022-07-26T18:23:11.399Z,24.47
2022-07-26T18:28:07.268Z,24.43
2022-07-26T18:33:01.513Z,24.37
2022-07-26T18:37:55.918Z,24.39
2022-07-26T18:42:51.271Z,24.34
2022-07-26T18:47:45.138Z,24.10
2022-07-26T18:52:41.118Z,24.15
2022-07-26T18:57:35.875Z,24.18
2022-07-26T19:02:30.998Z,24.20
2022-07-26T19:07:24.734Z,24.15
2022-07-26T19:12:18.325Z,24.14
2022-07-26T19:17:12.046Z,24.09
2022-07-26T19:22:07.208Z,24.14
2022-07-26T19:27:01.328Z,24.24
2022-07-26T19:31:55.432Z,24.33
2022-07-26T19:36:51.111Z,24.33
2022-07-26T19:41:47.852Z,24.25
2022-07-26T19:46:41.587Z,24.24
2022-07-26T19:51:45.053Z,24.29
2022-07-26T19:56:40.042Z,24.31
2022-07-26T20:01:35.013Z,24.42
2022-07-26T20:06:28.652Z,24.28
2022-07-26T20:11:22.837Z,24.20
2022-07-26T20:16:16.654Z,24.25
2022-07-26T20:21:11.698Z,24.26
2022-07-26T20:26:05.469Z,24.31
2022-07-26T20:30:59.122Z,24.12
2022-07-26T20:35:55.067Z,23.94
2022-07-26T20:40:50.405Z,23.90
2022-07-26T20:45:44.084Z,23.82
2022-07-26T20:50:37.973Z,23.79
2022-07-26T20:55:31.904Z,23.71
2022-07-26T21:00:35.083Z,23.70
2022-07-26T21:05:32.529Z,23.66
2022-07-26T21:10:26.154Z,23.55
2022-07-26T21:15:19.580Z,23.49
2022-07-26T21:20:14.305Z,23.26
2022-07-26T21:25:09.270Z,23.18
2022-07-26T21:30:03.902Z,23.20
2022-07-26T21:34:57.302Z,23.00
2022-07-26T21:39:52.136Z,22.83
2022-07-26T21:44:45.565Z,23.02
2022-07-26T21:49:39.013Z,23.08
2022-07-26T21:54:32.524Z,22.93
2022-07-26T21:59:27.300Z,22.88
2022-07-26T22:04:21.982Z,22.83
2022-07-26T22:09:15.483Z,22.89
2022-07-26T22:14:09.110Z,22.59
2022-07-26T22:19:04.369Z,22.58
2022-07-26T22:23:57.775Z,22.60
2022-07-26T22:28:51.165Z,22.62
2022-07-26T22:33:44.638Z,22.72
2022-07-26T22:38:39.364Z,22.80
2022-07-26T22:43:32.824Z,22.71
2022-07-26T22:48:26.274Z,22.72
2022-07-26T22:53:19.753Z,22.84
2022-07-26T22:58:14.489Z,22.68
2022-07-26T23:03:19.545Z,22.42
2022-07-26T23:08:36.209Z,22.34
2022-07-26T23:13:28.240Z,22.18
2022-07-26T23:18:21.590Z,22.04
2022-07-26T23:23:14.896Z,22.01
2022-07-26T23:28:08.304Z,21.67
2022-07-26T23:33:03.000Z,21.67
2022-07-26T23:37:56.426Z,21.71
2022-07-26T23:42:51.866Z,21.70
2022-07-26T23:47:45.438Z,21.64
2022-07-26T23:52:40.229Z,21.34
2022-07-26T23:57:33.857Z,21.25
